Time;durP1;ratioP1;P1;durP2;ratioP2;P2;SDS_P1;SDS_P2;PMS_P1;PMS_P2;Temp;Humidity;BMP_temperature;BMP_pressure;BME280_temperature;BME280_humidity;BME280_pressure;Samples;Min_cycle;Max_cycle;Signal;HPM_P1;HPM_P2
2020/03/06 00:01:00;;;;;;;1.58;1.48;;;;;;;18.79;39.52;97762.25;;;;-52
2020/03/06 00:04:01;;;;;;;1.94;1.60;;;;;;;18.77;39.59;97763.34;;;;-52
2020/03/06 00:07:01;;;;;;;2.03;1.50;;;;;;;18.77;39.57;97772.52;;;;-53
2020/03/06 00:10:01;;;;;;;1.56;1.44;;;;;;;18.76;39.55;97777.36;;;;-53
2020/03/06 00:13:01;;;;;;;1.75;1.61;;;;;;;18.74;39.56;97773.77;;;;-52
2020/03/06 00:16:01;;;;;;;2.21;1.61;;;;;;;18.74;39.56;97777.68;;;;-52
2020/03/06 00:19:00;;;;;;;1.60;1.50;;;;;;;18.73;39.54;97775.77;;;;-52
2020/03/06 00:22:00;;;;;;;1.81;1.65;;;;;;;18.71;39.56;97777.69;;;;-52
2020/03/06 00:25:00;;;;;;;2.00;1.61;;;;;;;18.70;39.54;97771.73;;;;-52
2020/03/06 00:28:00;;;;;;;1.55;1.45;;;;;;;18.69;39.56;97771.90;;;;-52
2020/03/06 00:31:01;;;;;;;1.60;1.50;;;;;;;18.69;39.56;97776.19;;;;-52
2020/03/06 00:34:01;;;;;;;1.50;1.40;;;;;;;18.67;39.59;97780.67;;;;-52
2020/03/06 00:37:00;;;;;;;2.54;1.60;;;;;;;18.66;39.61;97795.13;;;;-52
2020/03/06 00:40:00;;;;;;;1.45;1.35;;;;;;;18.65;39.56;97795.39;;;;-53
2020/03/06 00:43:00;;;;;;;1.51;1.40;;;;;;;18.65;39.59;97792.28;;;;-52
2020/03/06 00:46:01;;;;;;;1.50;1.40;;;;;;;18.63;39.58;97794.36;;;;-52
2020/03/06 00:49:01;;;;;;;2.17;1.50;;;;;;;18.63;39.63;97794.95;;;;-52
2020/03/06 00:52:01;;;;;;;1.63;1.53;;;;;;;18.62;39.58;97801.05;;;;-52
2020/03/06 00:55:01;;;;;;;1.71;1.40;;;;;;;18.60;39.60;97799.86;;;;-53
2020/03/06 00:58:01;;;;;;;1.77;1.50;;;;;;;18.60;39.63;97802.79;;;;-53
2020/03/06 01:01:00;;;;;;;1.58;1.47;;;;;;;18.59;39.67;97814.34;;;;-52
2020/03/06 01:04:00;;;;;;;1.55;1.45;;;;;;;18.58;39.66;97817.73;;;;-52
2020/03/06 01:07:00;;;;;;;1.95;1.50;;;;;;;18.57;39.65;97822.33;;;;-52
2020/03/06 01:10:01;;;;;;;1.43;1.32;;;;;;;18.57;39.65;97823.41;;;;-51
2020/03/06 01:13:00;;;;;;;1.55;1.45;;;;;;;18.55;39.66;97811.21;;;;-52
2020/03/06 01:16:01;;;;;;;1.48;1.38;;;;;;;18.55;39.68;97813.06;;;;-53
2020/03/06 01:19:00;;;;;;;1.50;1.40;;;;;;;18.53;39.68;97807.95;;;;-51
2020/03/06 01:22:00;;;;;;;1.40;1.30;;;;;;;18.52;39.65;97811.77;;;;-52
2020/03/06 01:25:00;;;;;;;1.50;1.40;;;;;;;18.51;39.66;97811.61;;;;-53
2020/03/06 01:28:00;;;;;;;1.52;1.37;;;;;;;18.51;39.67;97811.70;;;;-53
2020/03/06 01:31:01;;;;;;;1.75;1.41;;;;;;;18.50;39.70;97811.69;;;;-52
2020/03/06 01:34:01;;;;;;;1.50;1.40;;;;;;;18.49;39.69;97814.27;;;;-52
2020/03/06 01:37:01;;;;;;;1.51;1.41;;;;;;;18.48;39.70;97813.84;;;;-52
2020/03/06 01:40:00;;;;;;;1.50;1.40;;;;;;;18.47;39.69;97813.50;;;;-53
2020/03/06 01:43:00;;;;;;;1.51;1.41;;;;;;;18.46;39.70;97813.34;;;;-53
2020/03/06 01:46:00;;;;;;;1.49;1.39;;;;;;;18.45;39.72;97807.91;;;;-53
2020/03/06 01:49:00;;;;;;;1.79;1.30;;;;;;;18.44;39.69;97813.75;;;;-52
2020/03/06 01:52:01;;;;;;;1.45;1.35;;;;;;;18.44;39.65;97814.91;;;;-53
2020/03/06 01:55:01;;;;;;;1.40;1.30;;;;;;;18.42;39.70;97806.88;;;;-51
2020/03/06 01:58:01;;;;;;;1.40;1.30;;;;;;;18.42;39.70;97821.17;;;;-53
2020/03/06 02:01:00;;;;;;;1.98;1.30;;;;;;;18.42;39.70;97816.66;;;;-52
2020/03/06 02:04:00;;;;;;;1.45;1.35;;;;;;;18.41;39.68;97820.81;;;;-51
2020/03/06 02:07:00;;;;;;;1.55;1.37;;;;;;;18.39;39.72;97816.49;;;;-51
2020/03/06 02:10:00;;;;;;;1.47;1.34;;;;;;;18.40;39.71;97814.64;;;;-51
2020/03/06 02:13:01;;;;;;;1.45;1.33;;;;;;;18.39;39.73;97810.22;;;;-51
2020/03/06 02:16:01;;;;;;;1.49;1.39;;;;;;;18.38;39.71;97819.06;;;;-52
2020/03/06 02:19:01;;;;;;;1.39;1.29;;;;;;;18.37;39.69;97808.52;;;;-51
2020/03/06 02:22:00;;;;;;;1.40;1.30;;;;;;;18.36;39.72;97812.37;;;;-52
2020/03/06 02:25:00;;;;;;;1.40;1.30;;;;;;;18.35;39.75;97824.39;;;;-52
2020/03/06 02:28:00;;;;;;;1.45;1.30;;;;;;;18.35;39.74;97829.06;;;;-51
2020/03/06 02:31:00;;;;;;;1.38;1.28;;;;;;;18.34;39.76;97818.78;;;;-53
2020/03/06 02:34:01;;;;;;;1.39;1.29;;;;;;;18.33;39.73;97824.64;;;;-52
2020/03/06 02:37:00;;;;;;;1.26;1.16;;;;;;;18.32;39.74;97824.19;;;;-52
2020/03/06 02:40:00;;;;;;;1.31;1.21;;;;;;;18.32;39.76;97823.13;;;;-51
2020/03/06 02:43:00;;;;;;;1.43;1.30;;;;;;;18.31;39.80;97820.38;;;;-52
2020/03/06 02:46:01;;;;;;;1.40;1.30;;;;;;;18.30;39.78;97822.70;;;;-52
2020/03/06 02:49:00;;;;;;;1.40;1.30;;;;;;;18.30;39.79;97818.67;;;;-51
2020/03/06 02:52:01;;;;;;;1.34;1.24;;;;;;;18.28;39.81;97817.67;;;;-51
2020/03/06 02:55:01;;;;;;;1.41;1.21;;;;;;;18.28;39.81;97820.91;;;;-52
2020/03/06 02:58:01;;;;;;;1.40;1.30;;;;;;;18.28;39.80;97816.75;;;;-53
2020/03/06 03:01:00;;;;;;;1.23;1.13;;;;;;;18.27;39.83;97820.16;;;;-53
2020/03/06 03:04:00;;;;;;;1.29;1.20;;;;;;;18.27;39.83;97817.22;;;;-51
2020/03/06 03:07:00;;;;;;;1.39;1.29;;;;;;;18.25;39.83;97821.66;;;;-53
2020/03/06 03:10:00;;;;;;;1.35;1.25;;;;;;;18.24;39.80;97825.17;;;;-51
2020/03/06 03:13:01;;;;;;;1.38;1.28;;;;;;;18.24;39.83;97830.99;;;;-52
2020/03/06 03:16:00;;;;;;;1.51;1.31;;;;;;;18.24;39.83;97831.91;;;;-51
2020/03/06 03:19:00;;;;;;;1.25;1.17;;;;;;;18.23;39.82;97832.55;;;;-53
2020/03/06 03:22:00;;;;;;;1.50;1.21;;;;;;;18.23;39.83;97839.58;;;;-51
2020/03/06 03:25:00;;;;;;;1.25;1.15;;;;;;;18.21;39.84;97847.23;;;;-51
2020/03/06 03:28:00;;;;;;;1.28;1.18;;;;;;;18.20;39.82;97845.65;;;;-51
2020/03/06 03:31:00;;;;;;;1.40;1.30;;;;;;;18.20;39.82;97856.17;;;;-52
2020/03/06 03:34:00;;;;;;;1.10;1.10;;;;;;;18.20;39.85;97849.73;;;;-52
2020/03/06 03:37:01;;;;;;;1.30;1.20;;;;;;;18.19;39.87;97854.47;;;;-51
2020/03/06 03:40:00;;;;;;;1.30;1.20;;;;;;;18.18;39.86;97850.05;;;;-52
2020/03/06 03:43:00;;;;;;;1.41;1.17;;;;;;;18.18;39.86;97861.33;;;;-51
2020/03/06 03:46:00;;;;;;;1.30;1.20;;;;;;;18.18;39.87;97855.89;;;;-52
2020/03/06 03:49:00;;;;;;;1.21;1.11;;;;;;;18.17;39.89;97858.30;;;;-52
2020/03/06 03:52:00;;;;;;;1.30;1.20;;;;;;;18.17;39.84;97867.66;;;;-52
2020/03/06 03:55:01;;;;;;;1.52;1.23;;;;;;;18.16;39.86;97867.33;;;;-51
2020/03/06 03:58:01;;;;;;;1.30;1.20;;;;;;;18.15;39.89;97862.22;;;;-52
2020/03/06 04:01:00;;;;;;;1.09;1.09;;;;;;;18.14;39.88;97872.06;;;;-51
2020/03/06 04:04:00;;;;;;;1.21;1.11;;;;;;;18.14;39.85;97868.72;;;;-52
2020/03/06 04:07:00;;;;;;;1.40;1.30;;;;;;;18.13;39.87;97871.23;;;;-52
2020/03/06 04:10:00;;;;;;;1.27;1.19;;;;;;;18.13;39.87;97875.41;;;;-52
2020/03/06 04:13:01;;;;;;;1.29;1.19;;;;;;;18.12;39.88;97884.57;;;;-51
2020/03/06 04:16:01;;;;;;;1.08;1.04;;;;;;;18.11;39.91;97894.34;;;;-51
2020/03/06 04:19:01;;;;;;;1.10;1.10;;;;;;;18.11;39.89;97882.91;;;;-52
2020/03/06 04:22:00;;;;;;;1.18;1.11;;;;;;;18.09;39.92;97897.07;;;;-52
2020/03/06 04:25:00;;;;;;;1.22;1.16;;;;;;;18.09;39.90;97903.25;;;;-51
2020/03/06 04:28:00;;;;;;;1.22;1.12;;;;;;;18.08;39.89;97895.66;;;;-52
2020/03/06 04:31:00;;;;;;;1.09;1.05;;;;;;;18.08;39.88;97904.84;;;;-52
2020/03/06 04:34:00;;;;;;;1.00;1.00;;;;;;;18.07;39.96;97907.83;;;;-52
2020/03/06 04:37:00;;;;;;;1.26;1.16;;;;;;;18.07;39.89;97904.59;;;;-52
2020/03/06 04:40:00;;;;;;;1.21;1.11;;;;;;;18.07;39.90;97915.69;;;;-51
2020/03/06 04:43:00;;;;;;;1.20;1.10;;;;;;;18.07;39.89;97914.69;;;;-52
2020/03/06 04:46:00;;;;;;;1.28;1.18;;;;;;;18.07;39.88;97911.92;;;;-51
2020/03/06 04:49:00;;;;;;;1.07;1.04;;;;;;;18.07;39.87;97914.36;;;;-53
2020/03/06 04:52:00;;;;;;;1.24;1.14;;;;;;;18.07;39.86;97916.52;;;;-52
2020/03/06 04:55:00;;;;;;;1.11;1.10;;;;;;;18.10;39.89;97924.30;;;;-52
2020/03/06 04:58:01;;;;;;;1.20;1.10;;;;;;;18.10;39.92;97915.39;;;;-52
2020/03/06 05:01:00;;;;;;;1.09;1.05;;;;;;;18.12;39.86;97922.48;;;;-52
2020/03/06 05:04:00;;;;;;;1.18;1.08;;;;;;;18.14;39.85;97931.36;;;;-53
2020/03/06 05:07:00;;;;;;;1.20;1.13;;;;;;;18.17;39.83;97930.21;;;;-52
2020/03/06 05:10:00;;;;;;;1.02;1.02;;;;;;;18.20;39.88;97930.00;;;;-52
2020/03/06 05:13:00;;;;;;;0.99;0.99;;;;;;;18.24;39.79;97936.48;;;;-52
2020/03/06 05:16:00;;;;;;;1.09;1.09;;;;;;;18.27;39.78;97935.77;;;;-52
2020/03/06 05:19:01;;;;;;;1.04;1.04;;;;;;;18.31;39.98;97946.17;;;;-52
2020/03/06 05:22:00;;;;;;;1.00;1.00;;;;;;;18.35;39.89;97941.09;;;;-53
2020/03/06 05:25:00;;;;;;;1.01;1.01;;;;;;;18.39;39.81;97950.72;;;;-52
2020/03/06 05:28:00;;;;;;;0.99;0.99;;;;;;;18.42;39.85;97953.48;;;;-52
2020/03/06 05:31:00;;;;;;;0.94;0.94;;;;;;;18.48;39.92;97945.69;;;;-52
2020/03/06 05:34:00;;;;;;;1.12;1.09;;;;;;;18.51;39.97;97959.58;;;;-52
2020/03/06 05:37:00;;;;;;;0.99;0.99;;;;;;;18.55;40.04;97964.22;;;;-53
2020/03/06 05:40:01;;;;;;;1.00;1.00;;;;;;;18.57;39.96;97966.24;;;;-52
2020/03/06 05:43:00;;;;;;;0.94;0.94;;;;;;;18.62;40.06;97981.83;;;;-52
2020/03/06 05:46:00;;;;;;;0.90;0.90;;;;;;;18.62;39.93;97971.69;;;;-52
2020/03/06 05:49:00;;;;;;;0.91;0.91;;;;;;;18.68;39.94;97986.80;;;;-52
2020/03/06 05:52:00;;;;;;;0.92;0.92;;;;;;;18.70;39.89;97995.00;;;;-52
2020/03/06 05:55:00;;;;;;;0.95;0.95;;;;;;;18.74;40.05;98001.52;;;;-52
2020/03/06 05:58:00;;;;;;;1.23;1.13;;;;;;;18.76;39.97;98000.64;;;;-51
2020/03/06 06:01:00;;;;;;;1.02;0.97;;;;;;;18.78;39.93;98008.17;;;;-52
2020/03/06 06:04:00;;;;;;;1.03;1.00;;;;;;;18.81;40.04;98005.85;;;;-52
2020/03/06 06:07:00;;;;;;;0.93;0.93;;;;;;;18.82;39.92;98005.19;;;;-52
2020/03/06 06:10:00;;;;;;;0.92;0.92;;;;;;;18.87;39.93;98006.88;;;;-52
2020/03/06 06:13:00;;;;;;;0.92;0.92;;;;;;;18.88;39.91;98016.25;;;;-52
2020/03/06 06:16:00;;;;;;;0.85;0.85;;;;;;;18.88;39.90;98012.16;;;;-51
2020/03/06 06:19:00;;;;;;;0.93;0.93;;;;;;;18.90;39.85;98029.73;;;;-53
2020/03/06 06:22:00;;;;;;;0.96;0.96;;;;;;;18.95;39.94;98030.88;;;;-53
2020/03/06 06:25:00;;;;;;;0.87;0.87;;;;;;;18.94;39.84;98039.56;;;;-52
2020/03/06 06:28:00;;;;;;;1.00;1.00;;;;;;;18.97;39.86;98044.75;;;;-52
2020/03/06 06:31:00;;;;;;;0.95;0.95;;;;;;;18.98;39.84;98051.27;;;;-52
2020/03/06 06:34:00;;;;;;;0.90;0.90;;;;;;;18.99;39.79;98059.92;;;;-52
2020/03/06 06:37:00;;;;;;;0.91;0.91;;;;;;;19.01;39.85;98066.44;;;;-52
2020/03/06 06:40:00;;;;;;;0.92;0.92;;;;;;;19.02;39.80;98090.53;;;;-51
2020/03/06 06:43:00;;;;;;;0.76;0.76;;;;;;;19.04;39.69;98077.17;;;;-52
2020/03/06 06:46:00;;;;;;;1.00;1.00;;;;;;;19.05;39.79;98083.02;;;;-52
2020/03/06 06:49:00;;;;;;;0.90;0.90;;;;;;;19.07;39.70;98095.84;;;;-52
2020/03/06 06:52:00;;;;;;;1.18;1.08;;;;;;;19.07;39.70;98102.02;;;;-52
2020/03/06 06:55:00;;;;;;;0.90;0.90;;;;;;;19.12;39.76;98108.94;;;;-60
2020/03/06 06:58:00;;;;;;;0.82;0.82;;;;;;;19.12;39.66;98090.43;;;;-60
2020/03/06 07:01:00;;;;;;;0.99;0.99;;;;;;;19.14;39.66;98130.37;;;;-60
2020/03/06 07:04:00;;;;;;;0.87;0.87;;;;;;;19.14;39.62;98124.70;;;;-59
2020/03/06 07:07:00;;;;;;;0.90;0.90;;;;;;;19.15;39.57;98132.57;;;;-58
2020/03/06 07:10:00;;;;;;;0.99;0.99;;;;;;;19.17;39.55;98143.22;;;;-60
2020/03/06 07:13:00;;;;;;;0.80;0.80;;;;;;;19.17;39.54;98145.06;;;;-59
2020/03/06 07:16:00;;;;;;;1.08;1.00;;;;;;;19.17;39.58;98146.55;;;;-59
2020/03/06 07:19:00;;;;;;;0.93;0.93;;;;;;;19.17;39.51;98160.44;;;;-59
2020/03/06 07:22:00;;;;;;;0.79;0.79;;;;;;;19.16;39.49;98162.19;;;;-52
2020/03/06 07:25:00;;;;;;;0.83;0.83;;;;;;;19.17;39.48;98180.75;;;;-52
2020/03/06 07:28:00;;;;;;;0.90;0.90;;;;;;;19.16;39.39;98179.59;;;;-53
2020/03/06 07:31:00;;;;;;;0.80;0.80;;;;;;;19.16;39.43;98187.55;;;;-52
2020/03/06 07:34:01;;;;;;;0.90;0.90;;;;;;;19.18;39.36;98188.55;;;;-52
2020/03/06 07:37:00;;;;;;;0.91;0.90;;;;;;;19.18;39.36;98184.37;;;;-52
2020/03/06 07:40:00;;;;;;;1.23;0.93;;;;;;;19.18;39.34;98190.39;;;;-53
2020/03/06 07:43:00;;;;;;;0.70;0.70;;;;;;;19.18;39.35;98198.83;;;;-52
2020/03/06 07:46:00;;;;;;;0.77;0.77;;;;;;;19.18;39.33;98202.70;;;;-52
2020/03/06 07:49:00;;;;;;;0.83;0.83;;;;;;;19.18;39.36;98198.17;;;;-52
2020/03/06 07:52:00;;;;;;;0.90;0.90;;;;;;;19.18;39.25;98215.84;;;;-52
2020/03/06 07:55:00;;;;;;;0.75;0.75;;;;;;;19.20;39.30;98225.20;;;;-52
2020/03/06 07:58:00;;;;;;;0.90;0.90;;;;;;;19.20;39.28;98229.38;;;;-52
2020/03/06 08:01:00;;;;;;;0.78;0.78;;;;;;;19.20;39.27;98234.24;;;;-53
2020/03/06 08:04:00;;;;;;;0.85;0.85;;;;;;;19.19;39.28;98239.00;;;;-52
2020/03/06 08:07:00;;;;;;;0.72;0.72;;;;;;;19.20;39.22;98243.38;;;;-52
2020/03/06 08:10:00;;;;;;;0.80;0.80;;;;;;;19.20;39.25;98246.11;;;;-52
2020/03/06 08:13:01;;;;;;;0.81;0.79;;;;;;;19.21;39.22;98249.30;;;;-49
2020/03/06 08:16:00;;;;;;;1.34;1.19;;;;;;;19.23;39.69;98247.81;;;;-52
2020/03/06 08:19:00;;;;;;;1.41;0.90;;;;;;;19.23;39.63;98252.09;;;;-50
2020/03/06 08:22:00;;;;;;;0.90;0.90;;;;;;;19.24;39.22;98258.98;;;;-51
2020/03/06 08:25:00;;;;;;;3.41;1.01;;;;;;;19.24;39.21;98258.81;;;;-50
2020/03/06 08:28:00;;;;;;;1.01;0.80;;;;;;;19.25;39.48;98264.67;;;;-56
2020/03/06 08:31:00;;;;;;;2.01;0.85;;;;;;;19.28;39.85;98264.67;;;;-57
2020/03/06 08:34:00;;;;;;;1.75;0.87;;;;;;;19.29;39.99;98277.75;;;;-52
2020/03/06 08:37:00;;;;;;;0.71;0.71;;;;;;;19.30;39.84;98281.11;;;;-52
2020/03/06 08:40:00;;;;;;;1.23;0.87;;;;;;;19.32;39.95;98294.02;;;;-53
2020/03/06 08:43:00;;;;;;;2.11;0.90;;;;;;;19.33;39.69;98302.06;;;;-51
2020/03/06 08:46:00;;;;;;;1.57;0.95;;;;;;;19.35;39.68;98306.44;;;;-51
2020/03/06 08:49:00;;;;;;;0.80;0.80;;;;;;;19.38;39.49;98324.02;;;;-51
2020/03/06 08:52:00;;;;;;;2.66;0.85;;;;;;;19.41;40.19;98324.79;;;;-52
2020/03/06 08:55:00;;;;;;;1.85;0.77;;;;;;;19.42;39.81;98329.01;;;;-55
2020/03/06 08:58:00;;;;;;;1.04;0.81;;;;;;;19.45;39.61;98335.63;;;;-52
2020/03/06 09:01:00;;;;;;;1.23;0.97;;;;;;;19.46;39.54;98338.77;;;;-53
2020/03/06 09:04:03;;;;;;;1.37;0.80;;;;;;;19.46;39.50;98342.67;;;;-53
2020/03/06 09:07:00;;;;;;;0.89;0.89;;;;;;;19.48;39.26;98352.31;;;;-53
2020/03/06 09:10:00;;;;;;;0.77;0.77;;;;;;;19.48;39.26;98357.03;;;;-53
2020/03/06 09:13:00;;;;;;;1.11;0.89;;;;;;;19.49;39.25;98366.47;;;;-53
2020/03/06 09:16:00;;;;;;;4.71;0.89;;;;;;;19.49;39.10;98362.20;;;;-53
2020/03/06 09:19:00;;;;;;;0.65;0.65;;;;;;;19.49;39.13;98378.95;;;;-53
2020/03/06 09:22:00;;;;;;;0.80;0.80;;;;;;;19.49;39.13;98387.65;;;;-52
2020/03/06 09:25:00;;;;;;;1.35;0.93;;;;;;;19.49;39.06;98398.61;;;;-53
2020/03/06 09:28:00;;;;;;;0.71;0.71;;;;;;;19.50;39.16;98400.41;;;;-53
2020/03/06 09:31:00;;;;;;;0.72;0.72;;;;;;;19.50;39.04;98399.71;;;;-53
2020/03/06 09:34:00;;;;;;;0.68;0.68;;;;;;;19.49;38.92;98409.33;;;;-56
2020/03/06 09:37:00;;;;;;;1.50;0.90;;;;;;;19.49;38.96;98410.58;;;;-56
2020/03/06 09:40:00;;;;;;;0.77;0.75;;;;;;;19.49;39.01;98417.38;;;;-57
2020/03/06 09:43:00;;;;;;;0.57;0.57;;;;;;;19.48;38.99;98425.33;;;;-57
2020/03/06 09:46:00;;;;;;;0.81;0.81;;;;;;;19.49;39.12;98432.87;;;;-56
2020/03/06 09:49:00;;;;;;;0.80;0.71;;;;;;;19.49;38.94;98433.70;;;;-56
2020/03/06 09:52:00;;;;;;;1.07;0.84;;;;;;;19.50;39.00;98444.67;;;;-57
2020/03/06 09:55:00;;;;;;;1.17;0.80;;;;;;;19.50;39.20;98449.84;;;;-54
2020/03/06 09:58:00;;;;;;;1.73;0.74;;;;;;;19.51;39.27;98450.36;;;;-52
2020/03/06 10:01:00;;;;;;;1.99;0.81;;;;;;;19.53;39.15;98460.52;;;;-53
2020/03/06 10:04:00;;;;;;;0.61;0.61;;;;;;;19.54;39.44;98463.30;;;;-53
2020/03/06 10:07:00;;;;;;;4.59;0.95;;;;;;;19.55;39.83;98466.66;;;;-53
2020/03/06 10:10:00;;;;;;;2.75;0.68;;;;;;;19.57;39.83;98474.12;;;;-55
2020/03/06 10:13:00;;;;;;;0.96;0.66;;;;;;;19.60;39.90;98475.17;;;;-53
2020/03/06 10:16:00;;;;;;;0.83;0.70;;;;;;;19.62;40.06;98485.90;;;;-55
2020/03/06 10:19:00;;;;;;;4.53;0.69;;;;;;;19.63;40.07;98484.98;;;;-57
2020/03/06 10:22:00;;;;;;;0.89;0.71;;;;;;;19.66;39.96;98488.97;;;;-56
2020/03/06 10:25:00;;;;;;;1.33;0.75;;;;;;;19.70;40.23;98498.63;;;;-54
2020/03/06 10:28:00;;;;;;;1.07;0.77;;;;;;;19.69;40.23;98496.53;;;;-54
2020/03/06 10:31:00;;;;;;;1.01;0.82;;;;;;;19.70;39.77;98510.59;;;;-53
2020/03/06 10:34:00;;;;;;;4.97;0.97;;;;;;;19.70;39.78;98507.43;;;;-52
2020/03/06 10:37:00;;;;;;;2.37;0.80;;;;;;;19.71;40.01;98513.06;;;;-53
2020/03/06 10:40:00;;;;;;;2.06;0.89;;;;;;;19.74;40.09;98519.86;;;;-57
2020/03/06 10:43:00;;;;;;;3.78;0.82;;;;;;;19.77;40.32;98525.67;;;;-59
2020/03/06 10:46:00;;;;;;;4.81;0.91;;;;;;;19.78;40.13;98526.78;;;;-51
2020/03/06 10:49:00;;;;;;;2.77;0.91;;;;;;;19.80;40.18;98531.50;;;;-53
2020/03/06 10:52:00;;;;;;;1.46;0.83;;;;;;;19.80;40.41;98536.75;;;;-51
2020/03/06 10:55:00;;;;;;;2.47;0.90;;;;;;;19.81;40.77;98538.38;;;;-51
2020/03/06 10:58:00;;;;;;;2.93;1.17;;;;;;;19.82;40.92;98544.26;;;;-52
2020/03/06 11:01:00;;;;;;;1.95;0.95;;;;;;;19.82;40.55;98543.09;;;;-57
2020/03/06 11:04:00;;;;;;;3.73;0.83;;;;;;;19.83;40.30;98552.70;;;;-53
2020/03/06 11:07:00;;;;;;;1.73;0.80;;;;;;;19.82;40.00;98553.80;;;;-53
2020/03/06 11:10:00;;;;;;;3.37;1.02;;;;;;;19.81;39.64;98561.39;;;;-53
2020/03/06 11:13:00;;;;;;;2.83;1.09;;;;;;;19.82;40.07;98570.45;;;;-55
2020/03/06 11:16:00;;;;;;;4.41;1.07;;;;;;;19.84;40.36;98570.31;;;;-52
2020/03/06 11:19:00;;;;;;;1.90;1.02;;;;;;;19.84;40.59;98575.59;;;;-54
2020/03/06 11:22:00;;;;;;;4.19;1.22;;;;;;;19.85;40.34;98575.92;;;;-52
2020/03/06 11:25:00;;;;;;;3.03;1.16;;;;;;;19.85;40.58;98579.27;;;;-50
2020/03/06 11:28:00;;;;;;;19.32;1.25;;;;;;;19.87;40.74;98583.42;;;;-54
2020/03/06 11:31:00;;;;;;;10.06;1.18;;;;;;;19.86;40.43;98587.77;;;;-51
2020/03/06 11:34:00;;;;;;;11.34;1.51;;;;;;;19.84;40.30;98595.09;;;;-53
2020/03/06 11:37:00;;;;;;;4.15;1.12;;;;;;;19.84;39.92;98599.45;;;;-53
2020/03/06 11:40:00;;;;;;;3.94;0.97;;;;;;;19.83;39.73;98597.61;;;;-53
2020/03/06 11:43:00;;;;;;;2.56;0.97;;;;;;;19.84;39.56;98605.49;;;;-53
2020/03/06 11:46:00;;;;;;;3.11;1.05;;;;;;;19.82;39.53;98606.13;;;;-53
2020/03/06 11:49:00;;;;;;;2.27;0.79;;;;;;;19.82;39.47;98610.83;;;;-54
2020/03/06 11:52:00;;;;;;;1.13;0.87;;;;;;;19.82;39.41;98613.34;;;;-53
2020/03/06 11:55:00;;;;;;;2.75;0.97;;;;;;;19.81;39.35;98615.66;;;;-53
2020/03/06 11:58:00;;;;;;;3.29;0.90;;;;;;;19.80;39.36;98615.91;;;;-53
2020/03/06 12:01:00;;;;;;;3.35;0.87;;;;;;;19.79;39.34;98629.30;;;;-53
2020/03/06 12:04:00;;;;;;;2.47;1.00;;;;;;;19.79;39.25;98634.66;;;;-53
2020/03/06 12:07:00;;;;;;;2.74;0.78;;;;;;;19.78;39.22;98640.07;;;;-53
2020/03/06 12:10:00;;;;;;;1.93;0.89;;;;;;;19.77;39.25;98652.05;;;;-53
2020/03/06 12:13:00;;;;;;;1.83;0.91;;;;;;;19.77;39.27;98662.01;;;;-53
2020/03/06 12:16:00;;;;;;;3.21;0.96;;;;;;;19.76;39.20;98672.47;;;;-53
2020/03/06 12:19:00;;;;;;;1.99;0.88;;;;;;;19.76;39.12;98679.75;;;;-53
2020/03/06 12:22:00;;;;;;;1.91;1.01;;;;;;;19.74;39.16;98682.65;;;;-53
2020/03/06 12:25:00;;;;;;;1.37;0.91;;;;;;;19.74;39.18;98688.85;;;;-53
2020/03/06 12:28:00;;;;;;;2.32;0.99;;;;;;;19.73;39.13;98692.45;;;;-53
2020/03/06 12:31:00;;;;;;;1.30;0.81;;;;;;;19.74;39.12;98696.48;;;;-53
2020/03/06 12:34:00;;;;;;;1.79;0.90;;;;;;;19.73;39.11;98702.14;;;;-53
2020/03/06 12:37:00;;;;;;;0.95;0.90;;;;;;;19.74;39.06;98714.72;;;;-53
2020/03/06 12:40:00;;;;;;;1.33;0.79;;;;;;;19.72;39.04;98714.11;;;;-53
2020/03/06 12:43:00;;;;;;;1.97;0.86;;;;;;;19.71;39.01;98717.61;;;;-53
2020/03/06 12:46:00;;;;;;;2.71;0.90;;;;;;;19.73;39.10;98721.41;;;;-53
2020/03/06 12:49:00;;;;;;;0.97;0.92;;;;;;;19.72;39.01;98732.46;;;;-53
2020/03/06 12:52:00;;;;;;;0.85;0.67;;;;;;;19.72;39.06;98733.20;;;;-53
2020/03/06 12:55:00;;;;;;;2.04;0.90;;;;;;;19.72;39.01;98736.13;;;;-53
2020/03/06 12:58:00;;;;;;;0.93;0.83;;;;;;;19.73;38.99;98745.59;;;;-53
2020/03/06 13:01:00;;;;;;;2.36;0.92;;;;;;;19.73;39.03;98749.97;;;;-53
2020/03/06 13:04:00;;;;;;;1.18;0.90;;;;;;;19.73;39.07;98761.95;;;;-53
2020/03/06 13:07:00;;;;;;;0.87;0.71;;;;;;;19.73;39.12;98766.95;;;;-55
2020/03/06 13:10:00;;;;;;;3.04;1.30;;;;;;;19.74;39.32;98771.85;;;;-50
2020/03/06 13:13:00;;;;;;;2.85;1.29;;;;;;;19.75;39.15;98777.63;;;;-49
2020/03/06 13:16:00;;;;;;;3.68;1.31;;;;;;;19.77;39.42;98787.04;;;;-49
2020/03/06 13:19:00;;;;;;;3.43;1.50;;;;;;;19.77;39.39;98791.90;;;;-52
2020/03/06 13:22:00;;;;;;;4.36;1.40;;;;;;;19.80;39.48;98793.70;;;;-55
2020/03/06 13:25:00;;;;;;;3.96;1.60;;;;;;;19.82;39.73;98798.93;;;;-48
2020/03/06 13:28:00;;;;;;;4.79;1.75;;;;;;;19.80;39.88;98800.39;;;;-49
2020/03/06 13:31:00;;;;;;;3.11;1.59;;;;;;;19.85;39.71;98809.78;;;;-55
2020/03/06 13:34:00;;;;;;;4.16;1.60;;;;;;;19.87;39.89;98813.31;;;;-59
2020/03/06 13:37:00;;;;;;;5.22;1.67;;;;;;;19.87;39.89;98816.59;;;;-51
2020/03/06 13:40:00;;;;;;;4.60;1.55;;;;;;;19.89;39.85;98824.77;;;;-56
2020/03/06 13:43:00;;;;;;;3.15;1.53;;;;;;;19.90;39.85;98822.34;;;;-57
2020/03/06 13:46:00;;;;;;;4.95;1.63;;;;;;;19.91;39.99;98826.13;;;;-51
2020/03/06 13:49:00;;;;;;;2.82;1.43;;;;;;;19.92;39.92;98831.68;;;;-58
2020/03/06 13:52:00;;;;;;;2.09;1.55;;;;;;;19.93;39.95;98839.47;;;;-55
2020/03/06 13:55:00;;;;;;;3.70;1.59;;;;;;;19.94;40.11;98843.34;;;;-48
2020/03/06 13:58:00;;;;;;;2.41;1.76;;;;;;;19.92;39.58;98848.67;;;;-52
2020/03/06 14:01:03;;;;;;;4.52;2.32;;;;;;;19.92;39.53;98848.60;;;;-55
2020/03/06 14:04:00;;;;;;;2.57;2.09;;;;;;;19.92;39.44;98860.30;;;;-56
2020/03/06 14:07:00;;;;;;;2.39;2.15;;;;;;;19.92;39.52;98857.14;;;;-47
2020/03/06 14:10:03;;;;;;;3.05;2.60;;;;;;;19.92;39.51;98859.73;;;;-47
2020/03/06 14:13:00;;;;;;;5.85;3.09;;;;;;;19.91;39.51;98863.83;;;;-48
2020/03/06 14:16:00;;;;;;;4.33;3.33;;;;;;;19.92;39.36;98872.27;;;;-52
2020/03/06 14:19:00;;;;;;;4.77;3.13;;;;;;;19.92;39.45;98876.05;;;;-52
2020/03/06 14:22:00;;;;;;;4.32;3.04;;;;;;;19.92;39.52;98886.53;;;;-58
2020/03/06 14:25:00;;;;;;;5.05;3.06;;;;;;;19.92;39.70;98891.89;;;;-47
2020/03/06 14:28:00;;;;;;;4.83;3.71;;;;;;;19.97;39.93;98898.33;;;;-50
2020/03/06 14:31:00;;;;;;;6.71;3.03;;;;;;;19.96;39.64;98902.59;;;;-55
2020/03/06 14:34:00;;;;;;;3.79;3.09;;;;;;;19.98;39.72;98906.20;;;;-55
2020/03/06 14:37:00;;;;;;;4.66;2.77;;;;;;;19.99;39.79;98908.95;;;;-60
2020/03/06 14:40:00;;;;;;;4.19;2.91;;;;;;;20.00;39.82;98915.60;;;;-60
2020/03/06 14:43:00;;;;;;;4.19;2.89;;;;;;;20.00;39.77;98920.05;;;;-64
2020/03/06 14:46:00;;;;;;;3.97;3.03;;;;;;;20.01;39.65;98924.48;;;;-63
2020/03/06 14:49:00;;;;;;;5.03;2.93;;;;;;;20.00;39.64;98931.84;;;;-62
2020/03/06 14:52:00;;;;;;;4.21;2.71;;;;;;;20.03;39.71;98934.92;;;;-62
2020/03/06 14:55:00;;;;;;;3.11;2.79;;;;;;;20.02;39.70;98939.19;;;;-55
2020/03/06 14:58:02;;;;;;;2.89;2.59;;;;;;;20.03;39.72;98943.03;;;;-59
2020/03/06 15:01:00;;;;;;;4.28;2.79;;;;;;;20.03;39.91;98947.98;;;;-61
2020/03/06 15:04:00;;;;;;;3.67;2.73;;;;;;;20.05;39.83;98955.23;;;;-62
2020/03/06 15:07:00;;;;;;;2.91;2.61;;;;;;;20.06;39.93;98959.34;;;;-59
2020/03/06 15:10:00;;;;;;;3.90;2.78;;;;;;;20.05;39.82;98965.28;;;;-50
2020/03/06 15:13:00;;;;;;;3.86;2.47;;;;;;;20.06;39.86;98969.40;;;;-50
2020/03/06 15:16:00;;;;;;;2.77;2.50;;;;;;;20.06;39.83;98973.59;;;;-49
2020/03/06 15:19:00;;;;;;;2.95;2.54;;;;;;;20.06;39.93;98979.31;;;;-50
2020/03/06 15:22:00;;;;;;;2.89;2.47;;;;;;;20.07;39.81;98987.10;;;;-51
2020/03/06 15:25:00;;;;;;;3.95;2.58;;;;;;;20.07;39.97;98991.39;;;;-47
2020/03/06 15:28:00;;;;;;;3.13;2.49;;;;;;;20.09;39.94;98997.38;;;;-49
2020/03/06 15:31:00;;;;;;;3.01;2.51;;;;;;;20.09;39.92;98999.28;;;;-50
2020/03/06 15:34:00;;;;;;;2.81;2.61;;;;;;;20.09;39.96;99004.91;;;;-48
2020/03/06 15:37:00;;;;;;;2.67;2.29;;;;;;;20.09;39.95;99009.00;;;;-50
2020/03/06 15:40:00;;;;;;;3.78;2.45;;;;;;;20.10;40.00;99018.91;;;;-51
2020/03/06 15:43:00;;;;;;;2.75;2.28;;;;;;;20.10;39.85;99027.28;;;;-55
2020/03/06 15:46:00;;;;;;;4.07;2.30;;;;;;;20.10;39.97;99029.91;;;;-51
2020/03/06 15:49:00;;;;;;;2.43;2.23;;;;;;;20.11;39.99;99037.87;;;;-50
2020/03/06 15:52:00;;;;;;;2.99;2.27;;;;;;;20.10;39.89;99046.48;;;;-50
2020/03/06 15:55:00;;;;;;;3.16;2.20;;;;;;;20.11;39.94;99047.19;;;;-59
2020/03/06 15:58:00;;;;;;;3.28;2.38;;;;;;;20.11;40.14;99058.81;;;;-52
2020/03/06 16:01:00;;;;;;;2.57;2.30;;;;;;;20.11;39.93;99068.13;;;;-49
2020/03/06 16:04:00;;;;;;;7.13;2.20;;;;;;;20.10;39.90;99071.86;;;;-52
2020/03/06 16:07:00;;;;;;;2.33;2.13;;;;;;;20.10;39.94;99079.41;;;;-53
2020/03/06 16:10:00;;;;;;;2.88;2.11;;;;;;;20.11;39.97;99083.95;;;;-51
2020/03/06 16:13:01;;;;;;;3.28;2.30;;;;;;;20.13;40.01;99095.66;;;;-46
2020/03/06 16:16:00;;;;;;;4.41;2.19;;;;;;;20.12;39.65;99109.20;;;;-47
2020/03/06 16:19:01;;;;;;;2.68;2.18;;;;;;;20.10;39.54;99114.09;;;;-46
2020/03/06 16:22:00;;;;;;;4.45;2.05;;;;;;;20.10;39.48;99117.95;;;;-46
2020/03/06 16:25:01;;;;;;;2.20;2.00;;;;;;;20.08;39.36;99124.21;;;;-46
2020/03/06 16:28:00;;;;;;;2.43;2.13;;;;;;;20.09;39.35;99141.16;;;;-46
2020/03/06 16:31:01;;;;;;;2.82;2.17;;;;;;;20.07;39.36;99142.36;;;;-46
2020/03/06 16:34:01;;;;;;;2.31;2.05;;;;;;;20.08;39.36;99151.44;;;;-46
2020/03/06 16:37:00;;;;;;;2.24;2.04;;;;;;;20.05;39.24;99161.69;;;;-46
2020/03/06 16:40:01;;;;;;;2.30;2.10;;;;;;;20.06;39.19;99174.28;;;;-46
2020/03/06 16:43:00;;;;;;;2.31;1.92;;;;;;;20.04;39.21;99177.35;;;;-46
2020/03/06 16:46:00;;;;;;;2.15;1.95;;;;;;;20.04;39.20;99176.69;;;;-46
2020/03/06 16:49:01;;;;;;;2.15;1.93;;;;;;;20.03;39.20;99189.37;;;;-46
2020/03/06 16:52:00;;;;;;;2.18;1.90;;;;;;;20.02;39.14;99199.33;;;;-47
2020/03/06 16:55:00;;;;;;;2.91;1.92;;;;;;;20.03;39.11;99212.09;;;;-46